»·PEaware :: DAL576 KLAX-KSLC

DAL576 :: KLAX-KSLC

FLIGHT INFORMATION

Flight Status: Arrived
Operator:
Delta Air Lines
More flights by this operator :: More flights under this callsign
Pilot: Anonymous 8274 (8274)
Aircraft: BOEING 737-300
(B733)
More flights by this aircraft type
Origin: KLAX Los Angeles Intl
United States
Destination: KSLC Salt Lake City Intl
United States
More flights between these airports :: More routes between these airports
Route: +OSHNN8 LAS J9 MLF QWENN5
File this flight plan on PilotEdge
Remarks:
Altitude:
(Current/Filed)
34,000ft
Speed:
(Current/Filed)
460kts
Departed: 24-Nov-18 02:35 PM
Arrived: 24-Nov-18 04:05 PM
Distance/Time
Traveled:
512nm/1:30
Distance/Time
To Go:
Arrived

Flight Plot

Page will automatically refresh every two minutes.

Flight plan parsing failed; only flown route is shown


Map Options




Map Legend


Flown Route
Filed Route
Departure Airport
Arrival Airport
Navaid (VOR, NDB)
Fix

Horizontal Profiles

Position Reports

Time Latitude Longitude Heading Altitude Ground
Speed
24-Nov-18 13:48 33.946032 -118.406513 303 110ft 0kts
24-Nov-18 13:49 33.946032 -118.406513 303 110ft 0kts
24-Nov-18 13:50 33.946032 -118.406513 303 110ft 0kts
24-Nov-18 13:51 33.946032 -118.406513 303 110ft 0kts
24-Nov-18 13:52 33.946032 -118.406513 303 110ft 0kts
24-Nov-18 13:53 33.946032 -118.406513 303 110ft 0kts
24-Nov-18 13:54 33.946032 -118.406513 303 110ft 0kts
24-Nov-18 13:55 33.946032 -118.406513 303 110ft 0kts
24-Nov-18 13:56 33.946032 -118.406513 303 110ft 0kts
24-Nov-18 13:57 33.946032 -118.406513 303 110ft 0kts
24-Nov-18 13:58 33.946032 -118.406513 303 110ft 0kts
24-Nov-18 13:59 33.946032 -118.406513 303 110ft 0kts
24-Nov-18 14:00 33.946032 -118.406513 303 110ft 0kts
24-Nov-18 14:01 33.946032 -118.406513 303 110ft 0kts
24-Nov-18 14:02 33.946032 -118.406513 303 110ft 0kts
24-Nov-18 14:03 33.946032 -118.406513 303 110ft 0kts
24-Nov-18 14:04 33.946032 -118.406513 303 110ft 0kts
24-Nov-18 14:05 33.946032 -118.406513 303 110ft 0kts
24-Nov-18 14:06 33.946032 -118.406513 303 110ft 0kts
24-Nov-18 14:07 33.946032 -118.406513 303 110ft 0kts
24-Nov-18 14:08 33.946032 -118.406513 303 110ft 0kts
24-Nov-18 14:09 33.946032 -118.406513 303 110ft 0kts
24-Nov-18 14:10 33.946032 -118.406513 303 110ft 0kts
24-Nov-18 14:11 33.946032 -118.406513 303 110ft 0kts
24-Nov-18 14:12 33.946032 -118.406513 303 110ft 0kts
24-Nov-18 14:13 33.946032 -118.406513 303 110ft 0kts
24-Nov-18 14:14 33.946032 -118.406513 303 110ft 0kts
24-Nov-18 14:15 33.946032 -118.406513 303 110ft 0kts
24-Nov-18 14:16 33.945877 -118.406234 304 110ft 2kts
24-Nov-18 14:17 33.945804 -118.405605 282 110ft 2kts
24-Nov-18 14:18 33.945765 -118.405492 298 110ft 0kts
24-Nov-18 14:19 33.945765 -118.405492 298 110ft 0kts
24-Nov-18 14:20 33.945765 -118.405492 298 110ft 0kts
24-Nov-18 14:21 33.945765 -118.405492 298 110ft 0kts
24-Nov-18 14:22 33.945765 -118.405492 298 110ft 0kts
24-Nov-18 14:23 33.945765 -118.405492 298 110ft 0kts
24-Nov-18 14:24 33.945894 -118.405687 319 110ft 4kts
24-Nov-18 14:25 33.947068 -118.405964 352 110ft 0kts
24-Nov-18 14:26 33.947068 -118.405964 352 110ft 0kts
24-Nov-18 14:27 33.947068 -118.405964 352 110ft 0kts
24-Nov-18 14:28 33.947068 -118.405964 352 110ft 0kts
24-Nov-18 14:29 33.947068 -118.405964 352 110ft 0kts
24-Nov-18 14:30 33.947068 -118.405964 352 110ft 0kts
24-Nov-18 14:31 33.947068 -118.405964 352 110ft 0kts
24-Nov-18 14:32 33.947409 -118.405945 4 110ft 9kts
24-Nov-18 14:33 33.948714 -118.405318 80 110ft 13kts
24-Nov-18 14:34 33.949286 -118.399733 82 110ft 16kts
24-Nov-18 14:35 33.949474 -118.399270 38 110ft 0kts
24-Nov-18 14:36 33.949474 -118.399270 38 110ft 0kts
24-Nov-18 14:37 33.950276 -118.399175 330 110ft 10kts
24-Nov-18 14:38 33.948259 -118.420621 261 248ft 144kts
24-Nov-18 14:39 33.943026 -118.471590 267 1815ft 182kts
24-Nov-18 14:40 33.939380 -118.541952 266 3925ft 231kts
24-Nov-18 14:41 33.924362 -118.625338 228 6211ft 282kts
24-Nov-18 14:42 33.846864 -118.636879 167 9046ft 302kts
24-Nov-18 14:43 33.771808 -118.581398 145 10560ft 360kts
24-Nov-18 14:44 33.693466 -118.505117 115 12035ft 373kts
24-Nov-18 14:45 33.657969 -118.387887 107 14684ft 385kts
24-Nov-18 14:46 33.644486 -118.260859 86 17033ft 396kts
24-Nov-18 14:47 33.681599 -118.145595 33 19195ft 385kts
24-Nov-18 14:48 33.768241 -118.068926 32 21372ft 395kts
24-Nov-18 14:49 33.856724 -117.989538 32 23342ft 405kts
24-Nov-18 14:50 33.946990 -117.907652 32 25087ft 416kts
24-Nov-18 14:51 34.039692 -117.822850 33 26689ft 427kts
24-Nov-18 14:52 34.125985 -117.724590 47 28087ft 446kts
24-Nov-18 14:53 34.202712 -117.609790 47 30089ft 439kts
24-Nov-18 14:54 34.278859 -117.496524 47 31621ft 438kts
24-Nov-18 14:55 34.361966 -117.391630 40 33017ft 433kts
24-Nov-18 14:56 34.447702 -117.290642 40 33989ft 437kts
24-Nov-18 14:57 34.534178 -117.188249 40 33970ft 437kts
24-Nov-18 14:58 34.620257 -117.086153 40 33967ft 436kts
24-Nov-18 14:59 34.706160 -116.983952 40 33965ft 436kts
24-Nov-18 15:00 34.792179 -116.881310 41 33912ft 435kts
24-Nov-18 15:01 34.877860 -116.778756 41 33914ft 435kts
24-Nov-18 15:02 34.961411 -116.673463 43 33914ft 436kts
24-Nov-18 15:03 35.043043 -116.565684 43 33940ft 436kts
24-Nov-18 15:04 35.124608 -116.458154 43 33924ft 436kts
24-Nov-18 15:05 35.192012 -116.369110 43 33941ft 435kts
24-Nov-18 15:06 35.271999 -116.262577 44 33943ft 435kts
24-Nov-18 15:07 35.353176 -116.154431 44 33940ft 435kts
24-Nov-18 15:08 35.447944 -116.027764 44 33940ft 435kts
24-Nov-18 15:09 35.515038 -115.937798 44 33941ft 435kts
24-Nov-18 15:10 35.595991 -115.828931 44 33940ft 434kts
24-Nov-18 15:11 35.676216 -115.718981 44 33942ft 434kts
24-Nov-18 15:12 35.756159 -115.608896 44 33940ft 434kts
24-Nov-18 15:13 35.835991 -115.498794 44 33919ft 434kts
24-Nov-18 15:14 35.915602 -115.388637 44 33913ft 434kts
24-Nov-18 15:15 35.993505 -115.280255 45 33944ft 434kts
24-Nov-18 15:16 36.072931 -115.169592 45 33913ft 433kts
24-Nov-18 15:17 36.154743 -115.064986 42 33917ft 433kts
24-Nov-18 15:18 36.238516 -114.958998 42 33965ft 431kts
24-Nov-18 15:19 36.321479 -114.853532 42 33996ft 432kts
24-Nov-18 15:20 36.404087 -114.746891 43 33995ft 432kts
24-Nov-18 15:21 36.486572 -114.639400 43 33995ft 432kts
24-Nov-18 15:22 36.568669 -114.532158 43 33996ft 432kts
24-Nov-18 15:23 36.650741 -114.424681 43 33990ft 432kts
24-Nov-18 15:24 36.731251 -114.318670 43 33977ft 432kts
24-Nov-18 15:25 36.824588 -114.230099 28 33997ft 427kts
24-Nov-18 15:26 36.926460 -114.151955 22 33953ft 443kts
24-Nov-18 15:27 37.032663 -114.069569 22 33999ft 459kts
24-Nov-18 15:28 37.137502 -113.988016 22 33979ft 457kts
24-Nov-18 15:29 37.244977 -113.904297 20 33952ft 470kts
24-Nov-18 15:30 37.351101 -113.821119 21 33967ft 459kts
24-Nov-18 15:31 37.458580 -113.736619 21 34018ft 462kts
24-Nov-18 15:32 37.566070 -113.651849 21 34023ft 462kts
24-Nov-18 15:33 37.674382 -113.566145 21 34024ft 464kts
24-Nov-18 15:34 37.782965 -113.479923 21 34025ft 466kts
24-Nov-18 15:35 37.891635 -113.393332 21 34020ft 467kts
24-Nov-18 15:36 37.997411 -113.307333 22 34018ft 466kts
24-Nov-18 15:37 38.100230 -113.224409 22 34110ft 469kts
24-Nov-18 15:38 38.209350 -113.136312 22 34121ft 472kts
24-Nov-18 15:39 38.317705 -113.048022 21 34102ft 470kts
24-Nov-18 15:40 38.431084 -112.975123 10 34107ft 455kts
24-Nov-18 15:41 38.547072 -112.913649 10 34098ft 457kts
24-Nov-18 15:42 38.663802 -112.851506 10 34104ft 458kts
24-Nov-18 15:43 38.783818 -112.787163 8 34074ft 484kts
24-Nov-18 15:44 38.907632 -112.720131 8 34113ft 486kts
24-Nov-18 15:45 39.031061 -112.667892 9 34107ft 487kts
24-Nov-18 15:46 39.144650 -112.599353 9 34090ft 488kts
24-Nov-18 15:47 39.261102 -112.530565 11 31143ft 501kts
24-Nov-18 15:48 39.387486 -112.456920 12 27417ft 501kts
24-Nov-18 15:49 39.510507 -112.386259 14 24808ft 477kts
24-Nov-18 15:50 39.625407 -112.319840 15 22362ft 453kts
24-Nov-18 15:51 39.736265 -112.255552 16 19929ft 431kts
24-Nov-18 15:52 39.842223 -112.194079 17 17637ft 410kts
24-Nov-18 15:53 39.942976 -112.135422 18 15459ft 391kts
24-Nov-18 15:54 40.037663 -112.078754 19 13424ft 368kts
24-Nov-18 15:55 40.120571 -112.028663 21 11570ft 331kts
24-Nov-18 15:56 40.194517 -111.983942 21 11014ft 255kts
24-Nov-18 15:57 40.254170 -111.947796 20 11015ft 234kts
24-Nov-18 15:58 40.314085 -111.936268 1 11024ft 191kts
24-Nov-18 15:59 40.367492 -111.930541 2 10990ft 196kts
24-Nov-18 16:00 40.421925 -111.932482 353 10989ft 206kts
24-Nov-18 16:01 40.477752 -111.938986 352 10237ft 206kts
24-Nov-18 16:02 40.533357 -111.945839 352 8993ft 194kts
24-Nov-18 16:03 40.586894 -111.952315 352 7688ft 197kts
24-Nov-18 16:04 40.641632 -111.956139 352 6243ft 196kts
24-Nov-18 16:05 40.689083 -111.961686 350 6007ft 152kts
24-Nov-18 16:06 40.729291 -111.967923 350 5194ft 145kts
24-Nov-18 16:07 40.768969 -111.972475 351 4390ft 142kts
24-Nov-18 16:08 40.794644 -111.975924 331 4234ft 30kts
24-Nov-18 16:09 40.792947 -111.977443 175 4234ft 16kts
24-Nov-18 16:10 40.789990 -111.980171 263 4234ft 17kts
24-Nov-18 16:11 40.788801 -111.982660 117 4234ft 2kts

Navigation Log

Ident Type
Flight plan parsing failed, navigation log unavailable